Terminal Aerodrome Forecast
Issued by NWS

Home | Current Version | Previous Version | Text Only | Print | Product List | Glossary On
Versions: 1 2 3 4 5 6 7 8 9 10 11 12 13 14 15 16 17 18 19 20 21 22 23 24 25 26
000
FTUS46 KOTX 260533
TAFMWH
TAF
KMWH 260533Z 2606/2706 36005KT P6SM FEW080
     FM261200 02003KT P6SM SKC
     FM261800 20008KT P6SM SKC
     FM270000 18006KT P6SM SCT120=

USA.gov is the U.S. government's official web portal to all federal, state and local government web resources and services.